Portada
METAR-TAF:

METAR-TAF

Aeroports :

Bangkok, Tailàndia

latitud: 13-54-45N, longitud: 100-36-24E, altitud: 4 m

Observació

L'informe es va fer fa 15 minuts, a les 11:00 UTC
Vent 11 kt del Sud, variant entre Sud/Sud-Est i Sud/Sud-Oest
Temperatura 31°C
Humitat 66%
Pressió 1010 hPa
Visibilitat 10 km o més
Escasses núvols a una alçada de 2000 ft

METAR: VTBD 241100Z 18011KT 150V210 9999 FEW020 31/24 Q1010 NOSIG

Hora: 18:15 (11:15 UTC)

Pronòstic

L'informe es va fer fa 6 hores i 15 minuts, a les 05:00 UTC
Pronòstic vàlid del 24 a les 06 UTC al 25 a les 12 UTC
Vent 8 kt del Sud/Sud-Oest
Visibilitat: 9000 m
Escasses núvols a una alçada de 2000 ft

TAF: VTBD 240500Z 2406/2512 20008KT 9000 FEW020

Observacions i pronòstics meteorològics de més de 4000 aeroports (METAR i TAF).

Les estacions disponibles són els punts grocs i vermells al mapa.

Posi el ratolí al punt desitjat per veure el nom de l'estació.

Feu clic per veure les observacions i els pronòstics meteorològics.

Per canviar el mapa: feu clic els botons verds amb una creu de color negre per apropar; al botó verd amb un guió per allunyar la imatge; o en les fletxes verdes per a mapes adjacents.


METAR-TAF: